Fort Myers, FL

9:47 AM EDT on May 23, 2017 (GMT -0400)
Beckler Riverside | | Change Station
Active Advisory: Lake Wind Advisory

Elev 5 ft 26.62 °N, 81.89 °W | Updated 11 seconds ago

Clear
Clear
83.8 °F
Feels Like 88 °F
N
1.1
Wind Variable Wind from North
Gusts 2.5 mph

Today
High -- | Low -- °F
--% Chance of Precip.
Yesterday
High -- | Low -- °F
Precip. -- in
Pressure 29.96 in
Visibility 10.0 miles
Clouds Clear
Heat Index 88 °F
Dew Point 70 °F
Humidity 64%
Rainfall 0.00 in
Snow Depth Not available.
6:36 AM 8:12 PM
Waning Crescent, 8% visible
METAR KFMY 231253Z 16005KT 10SM CLR 26/23 A2996 RMK AO2 SLP146 T02610228
Pressure 29.96 in
Visibility 10.0 miles
Clouds Clear
Heat Index 88 °F
Dew Point 70 °F
Humidity 64%
Rainfall 0.00 in
Snow Depth Not available.
6:36 AM 8:12 PM
Waning Crescent, 8% visible
METAR KFMY 231253Z 16005KT 10SM CLR 26/23 A2996 RMK AO2 SLP146 T02610228

Get Your Daily Forecast Email!

Thanks for signing up!

Be on the lookout for a verification email in your inbox.

You'll start receiving severe weather alerts in your inbox..

×

10-Day Weather Forecast

Almanac

Astronomy

May. 23, 2017 Rise Set
Actual Time
Civil Twilight
Nautical Twilight
Astronomical Twilight
Moon
Length of Visible Light
Length of Day
Tomorrow will be .
, % of the Moon is Illuminated

Today's Extremes

State Highs State Lows

Community

WunderPhotos

Category 6

Welcome to Category 6. This is the collective home for Weather Underground's featured writeups by Dr. Jeff Masters (right), Bob Henson (left), Chris Burt, and other regular contributors.

Nearby

Air Quality

  Air Quality AQ Index Pollutant
Not available.

Snow Depth

Station Depth Elevation

Earthquake Activity

City Distance Mag. Time & Date
Minimum magnitude displayed is 2.5.

Coastal Water Temperatures

Place Temperature

Stations

Nearby Weather Stations

Station Location Temp. Windchill Dew Point Humidity Wind Precip. Elev Updated Type
                   

Watches & Warnings

Lake Wind Advisory
Issued: 4:07 AM EDT May. 23, 2017 – National Weather Service

... Lake Wind Advisory in effect from 9 am this morning to 8 PM
EDT this evening...

The National Weather Service in Tampa Bay area - Ruskin FL has
issued a lake Wind Advisory, which is in effect from 9 am this
morning to 8 PM EDT this evening.

* Timing... 9 am EDT through 8 PM EDT today.

* Winds... 20 to 25 mph with higher gusts.

* Impacts... strong and gusty wind will create choppy and difficult
boating conditions on area lakes.

Precautionary/preparedness actions...

A lake Wind Advisory indicates that winds will cause rough chop
on area lakes. Small boats will be especially prone to capsizing.